Terminal Aerodrome Forecast
Issued by NWS

Home | Current Version | Previous Version | Text Only | Print | Product List | Glossary On
Versions: 1 2 3 4 5 6 7 8 9 10 11 12 13 14 15 16 17 18 19 20 21 22 23 24
627
FTUS41 KPHI 171720
TAFPNE
TAF
KPNE 171720Z 1718/1818 15006KT P6SM SKC
     FM172100 17007KT P6SM SCT070 BKN250
     FM180000 17005KT P6SM BKN070 OVC100
     FM180500 17004KT P6SM OVC040 PROB30 1805/1809 3SM SHRA OVC025
     FM180900 17004KT 3SM SHRA OVC025 PROB30 1809/1813 2SM -TSRA
      BKN015CB
     FM181300 20007KT 2SM SHRA OVC008 PROB30 1813/1816 1SM TSRA
      BKN008CB
     FM181600 20008KT P6SM OVC012=

USA.gov is the U.S. government's official web portal to all federal, state and local government web resources and services.